createdAt,value
2023-08-12T00:01:45.427Z,98827.84
2023-08-12T00:04:48.869Z,98828.67
2023-08-12T00:07:53.149Z,98826.16
2023-08-12T00:10:56.935Z,98825.67
2023-08-12T00:13:59.962Z,98830.94
2023-08-12T00:17:03.793Z,98829.92
2023-08-12T00:20:08.020Z,98827.55
2023-08-12T00:23:10.988Z,98822.81
2023-08-12T00:26:14.463Z,98824.56
2023-08-12T00:29:17.467Z,98822.55
2023-08-12T00:32:20.413Z,98824.02
2023-08-12T00:35:23.369Z,98821.61
2023-08-12T00:38:26.410Z,98822.13
2023-08-12T00:41:29.299Z,98818.41
2023-08-12T00:44:32.288Z,98821.19
2023-08-12T00:47:35.252Z,98819.95
2023-08-12T00:50:38.753Z,98822.10
2023-08-12T00:53:42.042Z,98822.16
2023-08-12T00:56:46.114Z,98819.05
2023-08-12T00:59:50.350Z,98816.86
2023-08-12T01:02:55.167Z,98812.94
2023-08-12T01:05:58.357Z,98812.48
2023-08-12T01:09:02.773Z,98809.83
2023-08-12T01:12:18.115Z,98808.58
2023-08-12T01:15:24.946Z,98807.30
2023-08-12T01:18:28.879Z,98807.58
2023-08-12T01:21:33.651Z,98808.87
2023-08-12T01:24:39.471Z,98808.48
2023-08-12T01:27:42.441Z,98808.03
2023-08-12T01:31:08.636Z,98810.61
2023-08-12T01:34:21.684Z,98813.89
2023-08-12T01:37:28.144Z,98812.08
2023-08-12T01:40:33.661Z,98813.39
2023-08-12T01:43:37.000Z,98818.27
2023-08-12T01:46:40.054Z,98822.80
2023-08-12T01:49:43.003Z,98825.66
2023-08-12T01:52:46.015Z,98824.40
2023-08-12T01:55:51.121Z,98826.66
2023-08-12T01:58:54.139Z,98829.65
2023-08-12T02:01:57.097Z,98835.21
2023-08-12T02:05:00.167Z,98831.61
2023-08-12T02:08:03.369Z,98832.19
2023-08-12T02:11:06.398Z,98833.32
2023-08-12T02:14:09.525Z,98835.77
2023-08-12T02:17:12.836Z,98832.27
2023-08-12T02:20:16.276Z,98833.90
2023-08-12T02:23:19.283Z,98836.36
2023-08-12T02:26:22.248Z,98830.77
2023-08-12T02:29:25.282Z,98832.46
2023-08-12T02:32:28.417Z,98830.44
2023-08-12T02:35:31.453Z,98830.23
2023-08-12T02:38:34.485Z,98829.62
2023-08-12T02:41:37.448Z,98829.41
2023-08-12T02:44:40.397Z,98827.21
2023-08-12T02:47:43.434Z,98826.00
2023-08-12T02:50:46.440Z,98825.09
2023-08-12T02:53:49.418Z,98832.34
2023-08-12T02:56:52.345Z,98825.79
2023-08-12T02:59:55.419Z,98826.38
2023-08-12T03:02:58.530Z,98823.13
2023-08-12T03:06:01.717Z,98813.00
2023-08-12T03:09:05.486Z,98811.06
2023-08-12T03:12:08.843Z,98807.84
2023-08-12T03:15:12.172Z,98808.64
2023-08-12T03:18:15.216Z,98814.59
2023-08-12T03:21:18.231Z,98816.70
2023-08-12T03:24:21.310Z,98817.82
2023-08-12T03:27:24.510Z,98818.39
2023-08-12T03:30:27.978Z,98817.95
2023-08-12T03:33:33.024Z,98819.30
2023-08-12T03:36:36.432Z,98822.81
2023-08-12T03:39:40.123Z,98821.06
2023-08-12T03:42:43.156Z,98821.48
2023-08-12T03:45:46.632Z,98825.37
2023-08-12T03:48:51.259Z,98826.15
2023-08-12T03:51:54.570Z,98827.21
2023-08-12T03:54:57.957Z,98827.70
2023-08-12T03:58:02.205Z,98818.17
2023-08-12T04:01:05.649Z,98819.91
2023-08-12T04:04:10.392Z,98816.80
2023-08-12T04:07:14.929Z,98818.70
2023-08-12T04:10:18.404Z,98814.48
2023-08-12T04:13:21.753Z,98810.34
2023-08-12T04:16:24.824Z,98808.04
2023-08-12T04:19:27.874Z,98812.52
2023-08-12T04:22:30.827Z,98817.41
2023-08-12T04:25:33.767Z,98813.59
2023-08-12T04:28:38.333Z,98810.56
2023-08-12T04:31:42.475Z,98807.63
2023-08-12T04:34:46.954Z,98809.90
2023-08-12T04:37:50.559Z,98809.40
2023-08-12T04:40:55.939Z,98809.52
2023-08-12T04:43:59.439Z,98810.50
2023-08-12T04:47:04.168Z,98814.25
2023-08-12T04:50:07.942Z,98818.64
2023-08-12T04:53:11.244Z,98817.68
2023-08-12T04:56:14.494Z,98816.35
2023-08-12T04:59:17.522Z,98810.80
2023-08-12T05:02:21.784Z,98807.98
2023-08-12T05:05:27.198Z,98809.85
2023-08-12T05:08:30.229Z,98815.48
2023-08-12T05:11:33.306Z,98818.48
2023-08-12T05:14:36.410Z,98818.17
2023-08-12T05:17:39.408Z,98817.63
2023-08-12T05:20:46.710Z,98816.61
2023-08-12T05:23:50.454Z,98811.46
2023-08-12T05:26:53.492Z,98810.33
2023-08-12T05:29:56.475Z,98812.03
2023-08-12T05:32:59.490Z,98810.48
2023-08-12T05:36:03.942Z,98813.25
2023-08-12T05:39:11.103Z,98813.70
2023-08-12T05:42:14.409Z,98811.92
2023-08-12T05:45:17.500Z,98816.54
2023-08-12T05:48:20.392Z,98817.27
2023-08-12T05:51:23.396Z,98822.79
2023-08-12T05:54:26.318Z,98821.00
2023-08-12T05:57:29.935Z,98816.28
2023-08-12T06:00:33.158Z,98817.98
2023-08-12T06:03:36.197Z,98815.28
2023-08-12T06:06:39.509Z,98812.16
2023-08-12T06:09:42.540Z,98814.73
2023-08-12T06:12:45.473Z,98818.70
2023-08-12T06:15:48.471Z,98817.59
2023-08-12T06:18:51.402Z,98816.27
2023-08-12T06:21:54.426Z,98816.00
2023-08-12T06:24:57.326Z,98819.05
2023-08-12T06:28:00.390Z,98821.57
2023-08-12T06:31:03.477Z,98820.27
2023-08-12T06:34:06.526Z,98822.27
2023-08-12T06:37:09.771Z,98819.31
2023-08-12T06:40:12.710Z,98817.20
2023-08-12T06:43:15.591Z,98816.09
2023-08-12T06:46:18.664Z,98814.98
2023-08-12T06:49:21.654Z,98814.58
2023-08-12T06:52:24.946Z,98819.10
2023-08-12T06:55:27.953Z,98818.38
2023-08-12T06:58:30.875Z,98814.88
2023-08-12T07:01:33.878Z,98812.33
2023-08-12T07:04:36.987Z,98812.50
2023-08-12T07:07:40.278Z,98808.38
2023-08-12T07:10:44.652Z,98807.30
2023-08-12T07:13:47.675Z,98805.98
2023-08-12T07:16:50.723Z,98805.86
2023-08-12T07:19:53.825Z,98804.08
2023-08-12T07:22:57.136Z,98806.92
2023-08-12T07:26:00.115Z,98801.08
2023-08-12T07:29:03.130Z,98797.66
2023-08-12T07:32:06.331Z,98796.27
2023-08-12T07:35:09.837Z,98802.27
2023-08-12T07:38:13.258Z,98804.61
2023-08-12T07:41:16.236Z,98797.10
2023-08-12T07:44:19.266Z,98792.77
2023-08-12T07:47:22.268Z,98792.74
2023-08-12T07:50:25.300Z,98794.13
2023-08-12T07:53:28.215Z,98797.43
2023-08-12T07:56:31.235Z,98800.89
2023-08-12T07:59:34.289Z,98793.92
2023-08-12T08:02:37.299Z,98792.75
2023-08-12T08:05:43.591Z,98790.66
2023-08-12T08:08:46.704Z,98782.41
2023-08-12T08:11:49.809Z,98780.71
2023-08-12T08:14:53.070Z,98781.48
2023-08-12T08:17:56.151Z,98785.65
2023-08-12T08:21:05.638Z,98784.33
2023-08-12T08:24:09.834Z,98780.14
2023-08-12T08:27:14.396Z,98775.34
2023-08-12T08:30:17.612Z,98774.00
2023-08-12T08:36:24.180Z,98782.17
2023-08-12T08:39:27.576Z,98783.91
2023-08-12T08:42:30.779Z,98784.21
2023-08-12T08:45:34.868Z,98782.70
2023-08-12T08:48:39.316Z,98779.65
2023-08-12T08:51:43.886Z,98777.38
2023-08-12T08:54:46.922Z,98779.02
2023-08-12T08:57:51.154Z,98781.44
2023-08-12T09:00:54.230Z,98783.69
2023-08-12T09:03:58.695Z,98779.73
2023-08-12T09:07:02.519Z,98772.45
2023-08-12T09:10:06.503Z,98770.63
2023-08-12T09:13:10.481Z,98766.41
2023-08-12T09:16:13.894Z,98764.54
2023-08-12T09:19:16.880Z,98765.67
2023-08-12T09:22:19.940Z,98766.09
2023-08-12T09:25:22.896Z,98759.96
2023-08-12T09:28:25.926Z,98762.34
2023-08-12T09:31:31.077Z,98754.23
2023-08-12T09:34:34.325Z,98748.45
2023-08-12T09:37:37.301Z,98745.25
2023-08-12T09:40:41.071Z,98742.69
2023-08-12T09:43:44.773Z,98739.91
2023-08-12T09:46:47.691Z,98740.25
2023-08-12T09:49:51.166Z,98733.07
2023-08-12T09:52:56.142Z,98736.55
2023-08-12T09:56:06.458Z,98738.30
2023-08-12T09:59:11.508Z,98734.36
2023-08-12T10:02:19.657Z,98725.35
2023-08-12T10:05:27.641Z,98725.45
2023-08-12T10:08:31.010Z,98725.98
2023-08-12T10:11:34.015Z,98724.70
2023-08-12T10:14:37.201Z,98729.16
2023-08-12T10:17:44.010Z,98726.27
2023-08-12T10:20:49.194Z,98723.38
2023-08-12T10:23:53.738Z,98722.52
2023-08-12T10:26:56.845Z,98721.77
2023-08-12T10:30:00.354Z,98723.59
2023-08-12T10:33:04.413Z,98724.10
2023-08-12T10:36:08.641Z,98718.83
2023-08-12T10:39:11.732Z,98715.14
2023-08-12T10:42:15.192Z,98707.60
2023-08-12T10:45:19.374Z,98708.55
2023-08-12T10:48:25.034Z,98704.96
2023-08-12T10:51:54.772Z,98704.02
2023-08-12T10:55:20.977Z,98703.55
2023-08-12T10:58:41.946Z,98706.84
2023-08-12T11:01:45.695Z,98705.21
2023-08-12T11:05:01.974Z,98700.73
2023-08-12T11:08:07.347Z,98692.77
2023-08-12T11:11:21.301Z,98692.29
2023-08-12T11:14:24.979Z,98686.52
2023-08-12T11:17:38.336Z,98689.79
2023-08-12T11:20:42.056Z,98685.84
2023-08-12T11:23:45.792Z,98682.66
2023-08-12T11:26:50.263Z,98685.66
2023-08-12T11:29:53.356Z,98679.30
2023-08-12T11:32:57.116Z,98675.41
2023-08-12T11:36:00.230Z,98674.37
2023-08-12T11:39:03.909Z,98667.53
2023-08-12T11:42:06.880Z,98661.77
2023-08-12T11:45:10.655Z,98659.27
2023-08-12T11:48:13.970Z,98657.45
2023-08-12T11:51:17.479Z,98656.28
2023-08-12T11:54:21.471Z,98644.84
2023-08-12T11:57:24.883Z,98650.23
2023-08-12T12:00:28.244Z,98649.83
2023-08-12T12:03:31.364Z,98642.90
2023-08-12T12:06:37.973Z,98639.73
2023-08-12T12:09:45.222Z,98634.59
2023-08-12T12:12:48.292Z,98629.75
2023-08-12T12:15:51.201Z,98620.11
2023-08-12T12:19:00.299Z,98620.85
2023-08-12T12:22:09.182Z,98620.54
2023-08-12T12:25:14.406Z,98622.39
2023-08-12T12:28:17.398Z,98623.05
2023-08-12T12:31:23.060Z,98618.79
2023-08-12T12:34:26.075Z,98614.73
2023-08-12T12:37:29.248Z,98610.28
2023-08-12T12:40:32.654Z,98613.21
2023-08-12T12:43:35.966Z,98603.27
2023-08-12T12:46:39.344Z,98608.34
2023-08-12T12:49:45.307Z,98604.85
2023-08-12T12:52:48.518Z,98592.89
2023-08-12T12:55:51.898Z,98593.27
2023-08-12T12:58:55.516Z,98588.08
2023-08-12T13:01:59.215Z,98587.51
2023-08-12T13:05:02.492Z,98585.08
2023-08-12T13:08:07.367Z,98580.57
2023-08-12T13:11:11.105Z,98583.48
2023-08-12T13:14:14.149Z,98583.20
2023-08-12T13:17:17.500Z,98575.40
2023-08-12T13:20:22.035Z,98580.10
2023-08-12T13:23:24.997Z,98575.80
2023-08-12T13:26:28.118Z,98571.45
2023-08-12T13:29:32.102Z,98566.39
2023-08-12T13:32:35.141Z,98566.73
2023-08-12T13:35:38.161Z,98561.61
2023-08-12T13:38:41.202Z,98558.13
2023-08-12T13:41:44.759Z,98555.83
2023-08-12T13:44:47.757Z,98555.17
2023-08-12T13:47:52.768Z,98552.72
2023-08-12T13:50:56.744Z,98547.61
2023-08-12T13:54:00.835Z,98547.66
2023-08-12T13:57:04.274Z,98546.77
2023-08-12T14:00:10.918Z,98547.70
2023-08-12T14:03:19.938Z,98544.37
2023-08-12T14:06:22.999Z,98540.17
2023-08-12T14:09:25.923Z,98533.34
2023-08-12T14:12:29.160Z,98531.23
2023-08-12T14:15:32.215Z,98531.48
2023-08-12T14:18:35.409Z,98532.63
2023-08-12T14:21:38.333Z,98525.95
2023-08-12T14:24:41.530Z,98522.30
2023-08-12T14:27:44.489Z,98523.14
2023-08-12T14:30:47.968Z,98522.05
2023-08-12T14:33:51.095Z,98515.52
2023-08-12T14:36:54.058Z,98512.77
2023-08-12T14:39:57.200Z,98510.08
2023-08-12T14:43:00.111Z,98510.30
2023-08-12T14:46:03.318Z,98507.45
2023-08-12T14:49:06.273Z,98504.66
2023-08-12T14:52:20.274Z,98501.56
2023-08-12T14:55:23.332Z,98500.23
2023-08-12T14:58:26.249Z,98496.32
2023-08-12T15:01:29.436Z,98497.61
2023-08-12T15:04:33.861Z,98493.26
2023-08-12T15:07:36.915Z,98490.87
2023-08-12T15:10:39.903Z,98488.59
2023-08-12T15:13:43.188Z,98483.37
2023-08-12T15:16:46.143Z,98476.12
2023-08-12T15:19:49.120Z,98474.22
2023-08-12T15:22:52.036Z,98471.56
2023-08-12T15:25:54.928Z,98465.71
2023-08-12T15:28:57.905Z,98463.92
2023-08-12T15:32:01.483Z,98468.58
2023-08-12T15:35:04.769Z,98468.63
2023-08-12T15:38:07.745Z,98467.83
2023-08-12T15:41:15.474Z,98460.16
2023-08-12T15:44:18.473Z,98461.35
2023-08-12T15:47:21.497Z,98465.55
2023-08-12T15:50:24.451Z,98467.11
2023-08-12T15:53:27.400Z,98466.07
2023-08-12T15:56:32.390Z,98465.66
2023-08-12T15:59:37.137Z,98459.50
2023-08-12T16:02:40.299Z,98456.95
2023-08-12T16:05:43.662Z,98460.27
2023-08-12T16:08:52.970Z,98466.33
2023-08-12T16:12:04.066Z,98466.09
2023-08-12T16:15:07.734Z,98462.98
2023-08-12T16:18:10.892Z,98458.06
2023-08-12T16:21:13.891Z,98457.14
2023-08-12T16:24:16.973Z,98452.66
2023-08-12T16:27:19.966Z,98454.35
2023-08-12T16:30:23.204Z,98455.18
2023-08-12T16:33:26.190Z,98455.52
2023-08-12T16:36:29.200Z,98456.26
2023-08-12T16:39:32.204Z,98456.90
2023-08-12T16:42:35.450Z,98456.59
2023-08-12T16:45:38.406Z,98453.71
2023-08-12T16:48:41.415Z,98449.91
2023-08-12T16:51:44.310Z,98451.73
2023-08-12T16:54:47.331Z,98443.80
2023-08-12T16:57:50.333Z,98439.44
2023-08-12T17:00:53.704Z,98442.64
2023-08-12T17:03:56.806Z,98444.68
2023-08-12T17:06:59.794Z,98445.23
2023-08-12T17:10:02.936Z,98446.44
2023-08-12T17:13:06.114Z,98445.45
2023-08-12T17:16:09.111Z,98445.61
2023-08-12T17:19:12.119Z,98442.48
2023-08-12T17:22:15.626Z,98437.48
2023-08-12T17:25:18.732Z,98435.50
2023-08-12T17:28:22.377Z,98433.38
2023-08-12T17:31:25.305Z,98434.94
2023-08-12T17:34:28.281Z,98439.41
2023-08-12T17:37:36.667Z,98437.20
2023-08-12T17:40:39.892Z,98435.95
2023-08-12T17:43:47.954Z,98438.02
2023-08-12T17:46:51.369Z,98436.58
2023-08-12T17:49:57.096Z,98435.18
2023-08-12T17:53:00.134Z,98434.12
2023-08-12T17:56:04.477Z,98433.27
2023-08-12T17:59:07.477Z,98434.67
2023-08-12T18:02:13.327Z,98442.17
2023-08-12T18:05:20.870Z,98444.20
2023-08-12T18:08:24.299Z,98451.19
2023-08-12T18:11:28.275Z,98450.73
2023-08-12T18:14:31.252Z,98451.06
2023-08-12T18:17:34.217Z,98452.16
2023-08-12T18:20:37.209Z,98453.80
2023-08-12T18:23:40.158Z,98453.20
2023-08-12T18:26:43.141Z,98459.63
2023-08-12T18:29:46.164Z,98465.00
2023-08-12T18:32:49.157Z,98464.38
2023-08-12T18:35:52.262Z,98466.04
2023-08-12T18:38:55.187Z,98459.98
2023-08-12T18:41:58.060Z,98467.60
2023-08-12T18:45:01.009Z,98470.75
2023-08-12T18:48:04.505Z,98467.93
2023-08-12T18:51:07.550Z,98469.39
2023-08-12T18:54:10.523Z,98470.66
2023-08-12T18:57:13.510Z,98474.80
2023-08-12T19:00:17.082Z,98468.11
2023-08-12T19:03:20.074Z,98470.16
2023-08-12T19:06:23.207Z,98470.83
2023-08-12T19:09:26.851Z,98475.09
2023-08-12T19:12:29.793Z,98478.30
2023-08-12T19:15:32.776Z,98480.41
2023-08-12T19:18:36.037Z,98483.20
2023-08-12T19:21:39.540Z,98487.73
2023-08-12T19:24:42.460Z,98487.70
2023-08-12T19:27:45.365Z,98485.06
2023-08-12T19:30:51.922Z,98485.00
2023-08-12T19:33:54.933Z,98488.16
2023-08-12T19:36:57.985Z,98487.52
2023-08-12T19:40:00.891Z,98486.34
2023-08-12T19:43:04.000Z,98484.09
2023-08-12T19:46:07.533Z,98480.33
2023-08-12T19:49:10.467Z,98477.73
2023-08-12T19:52:13.647Z,98481.44
2023-08-12T19:55:17.062Z,98475.90
2023-08-12T19:58:20.662Z,98478.95
2023-08-12T20:01:23.696Z,98479.69
2023-08-12T20:04:26.849Z,98478.83
2023-08-12T20:07:30.140Z,98477.83
2023-08-12T20:10:33.240Z,98473.58
2023-08-12T20:13:36.281Z,98473.48
2023-08-12T20:16:39.321Z,98472.13
2023-08-12T20:19:42.431Z,98477.20
2023-08-12T20:23:03.417Z,98478.21
2023-08-12T20:26:10.257Z,98484.40
2023-08-12T20:29:13.217Z,98485.13
2023-08-12T20:32:17.359Z,98489.11
2023-08-12T20:35:20.349Z,98496.32
2023-08-12T20:38:23.314Z,98500.39
2023-08-12T20:41:26.233Z,98507.98
2023-08-12T20:44:29.275Z,98512.95
2023-08-12T20:47:32.270Z,98508.59
2023-08-12T20:50:35.247Z,98501.24
2023-08-12T20:53:38.452Z,98503.64
2023-08-12T20:56:41.565Z,98505.89
2023-08-12T20:59:47.346Z,98502.11
2023-08-12T21:02:50.615Z,98499.77
2023-08-12T21:05:53.691Z,98500.42
2023-08-12T21:08:56.633Z,98498.70
2023-08-12T21:11:59.948Z,98498.89
2023-08-12T21:15:03.553Z,98496.92
2023-08-12T21:18:06.588Z,98492.80
2023-08-12T21:21:09.723Z,98489.20
2023-08-12T21:24:12.782Z,98483.30
2023-08-12T21:27:15.772Z,98479.27
2023-08-12T21:30:20.072Z,98472.85
2023-08-12T21:33:23.100Z,98474.98
2023-08-12T21:36:26.159Z,98468.27
2023-08-12T21:39:29.125Z,98460.78
2023-08-12T21:42:32.098Z,98460.90
2023-08-12T21:45:35.107Z,98456.48
2023-08-12T21:48:38.072Z,98458.73
2023-08-12T21:51:40.971Z,98459.07
2023-08-12T21:54:44.551Z,98457.69
2023-08-12T21:57:47.606Z,98454.71
2023-08-12T22:00:50.687Z,98449.88
2023-08-12T22:03:53.672Z,98445.22
2023-08-12T22:06:56.669Z,98440.02
2023-08-12T22:10:00.542Z,98436.93
2023-08-12T22:13:03.928Z,98443.58
2023-08-12T22:16:07.108Z,98446.81
2023-08-12T22:19:10.314Z,98451.98
2023-08-12T22:22:19.275Z,98450.66
2023-08-12T22:25:23.229Z,98452.16
2023-08-12T22:28:26.172Z,98454.27
2023-08-12T22:31:29.269Z,98453.52
2023-08-12T22:34:32.284Z,98444.35
2023-08-12T22:37:35.331Z,98449.95
2023-08-12T22:40:38.229Z,98443.44
2023-08-12T22:43:41.218Z,98442.09
2023-08-12T22:46:44.210Z,98440.84
2023-08-12T22:49:47.555Z,98444.52
2023-08-12T22:52:50.731Z,98450.56
2023-08-12T22:55:53.689Z,98447.20
2023-08-12T22:58:58.933Z,98444.08
2023-08-12T23:02:02.038Z,98448.23
2023-08-12T23:05:05.380Z,98445.84
2023-08-12T23:08:08.624Z,98441.36
2023-08-12T23:11:11.671Z,98442.84
2023-08-12T23:14:14.889Z,98448.37
2023-08-12T23:17:18.028Z,98453.61
2023-08-12T23:20:21.177Z,98454.62
2023-08-12T23:23:24.257Z,98449.42
2023-08-12T23:26:27.201Z,98448.02
2023-08-12T23:29:30.186Z,98448.43
2023-08-12T23:32:33.204Z,98443.95
2023-08-12T23:35:36.202Z,98438.56
2023-08-12T23:38:39.085Z,98437.86
2023-08-12T23:41:42.192Z,98445.54
2023-08-12T23:44:45.072Z,98444.70
2023-08-12T23:47:48.059Z,98443.09
2023-08-12T23:50:52.004Z,98443.93
2023-08-12T23:53:55.022Z,98443.39
2023-08-12T23:56:59.692Z,98442.29
